Time;durP1;ratioP1;P1;durP2;ratioP2;P2;SDS_P1;SDS_P2;PMS_P1;PMS_P2;Temp;Humidity;BMP_temperature;BMP_pressure;BME280_temperature;BME280_humidity;BME280_pressure;Samples;Min_cycle;Max_cycle;Signal;HPM_P1;HPM_P2
2022/01/21 00:02:34;;;;;;;19.60;10.15;;;;;;;4.47;46.07;95031.53;5005160;28;20049;-67
2022/01/21 00:05:32;;;;;;;19.63;10.88;;;;;;;4.67;45.47;95045.25;5008138;28;20041;-69
2022/01/21 00:08:14;;;;;;;19.27;11.30;;;;;;;4.65;45.25;95042.75;5006751;28;20083;-63
2022/01/21 00:10:51;;;;;;;20.13;10.40;;;;;;;4.69;45.08;95039.19;5007548;28;20166;-68
2022/01/21 00:13:37;;;;;;;19.90;10.70;;;;;;;4.14;45.22;94952.81;5007431;28;20057;-69
2022/01/21 00:16:38;;;;;;;;;;;;;;;;;;;;;
2022/01/21 00:19:38;;;;;;;27.20;13.55;;;;;;;5.02;44.86;95059.19;4931613;28;20042;-68
2022/01/21 00:31:01;;;;;;;7.50;4.15;;;;;;;5.37;48.15;95050.94;4985495;28;20057;-69
2022/01/21 00:33:27;;;;;;;12.25;5.55;;;;;;;5.44;47.36;95062.56;4952539;28;20034;-66
2022/01/21 00:36:01;;;;;;;9.07;4.78;;;;;;;5.53;44.27;95080.09;4985022;28;20046;-65
2022/01/21 00:38:42;;;;;;;8.25;4.43;;;;;;;5.06;42.81;95018.97;4969196;28;20141;-68
2022/01/21 00:41:51;;;;;;;;;;;;;;;;;;;;;
2022/01/21 00:44:59;;;;;;;6.70;4.15;;;;;;;5.58;41.76;95102.94;4985256;28;20040;-67
2022/01/21 00:47:55;;;;;;;6.20;3.33;;;;;;;5.50;44.79;95108.34;4935004;28;20421;-67
2022/01/21 00:50:50;;;;;;;4.45;2.63;;;;;;;5.24;54.72;95115.38;4992374;28;20053;-65
2022/01/21 00:53:24;;;;;;;4.28;2.42;;;;;;;5.11;57.49;95112.47;5011138;28;20038;-67
2022/01/21 00:56:19;;;;;;;4.80;2.33;;;;;;;4.85;60.84;95123.72;5011213;28;20026;-69
2022/01/21 00:59:09;;;;;;;9.30;3.25;;;;;;;4.57;62.41;95109.44;5011119;28;20018;-69
2022/01/21 01:01:49;;;;;;;9.23;4.10;;;;;;;4.56;61.56;95133.34;5010508;28;20412;-66
2022/01/21 01:04:29;;;;;;;7.80;3.60;;;;;;;4.86;60.20;95127.94;5010545;28;20041;-68
2022/01/21 01:07:19;;;;;;;7.78;3.97;;;;;;;4.79;62.02;95124.78;4974231;28;20137;-68
2022/01/21 01:10:08;;;;;;;6.32;3.55;;;;;;;4.59;62.70;95099.16;5005096;28;20089;-66
2022/01/21 01:21:18;;;;;;;9.65;5.13;;;;;;;4.54;64.76;95093.41;4991134;28;20053;-66
2022/01/21 01:29:35;;;;;;;9.95;4.43;;;;;;;4.52;64.55;95096.03;4991276;28;20516;-64
2022/01/21 01:32:04;;;;;;;7.82;4.15;;;;;;;4.39;64.64;95082.91;4989476;28;20054;-63
2022/01/21 01:34:52;;;;;;;7.10;4.47;;;;;;;4.40;65.13;95088.84;4990771;28;20259;-68
2022/01/21 01:40:58;;;;;;;6.55;3.58;;;;;;;4.48;64.93;95080.91;4961900;28;20112;-63
2022/01/21 01:49:52;;;;;;;7.47;4.90;;;;;;;4.26;65.96;95076.56;4990498;28;20046;-64
2022/01/21 01:52:28;;;;;;;7.90;4.50;;;;;;;4.20;66.75;95075.09;4971387;28;20117;-64
2022/01/21 01:54:56;;;;;;;7.50;4.97;;;;;;;4.10;67.15;95060.16;4971458;28;20090;-66
2022/01/21 01:57:35;;;;;;;7.07;4.28;;;;;;;4.21;67.72;95078.47;4990085;28;20049;-62
2022/01/21 02:00:06;;;;;;;7.25;4.93;;;;;;;4.23;68.04;95086.91;4953599;28;20092;-66
2022/01/21 02:03:05;;;;;;;7.93;5.50;;;;;;;4.07;68.35;95058.56;4983889;28;20046;-63
2022/01/21 02:05:56;;;;;;;9.48;6.53;;;;;;;4.10;69.06;95075.47;5004566;28;20042;-68
2022/01/21 02:09:00;;;;;;;;;;;;;;;;;;;;;
2022/01/21 02:11:41;;;;;;;9.60;5.53;;;;;;;4.15;69.39;95088.91;4972233;28;20050;-62
2022/01/21 02:14:48;;;;;;;9.50;5.47;;;;;;;3.92;69.95;95057.41;5009540;28;20405;-62
2022/01/21 02:23:08;;;;;;;;;;;;;;;3.84;71.56;95100.22;5010029;28;20069;-64
2022/01/21 02:26:00;;;;;;;12.30;5.82;;;;;;;3.62;72.31;95095.88;4999547;28;19914;-62
2022/01/21 02:29:01;;;;;;;;;;;;;;;3.55;72.46;95106.34;4974703;28;20064;-64
2022/01/21 02:31:48;;;;;;;11.43;6.22;;;;;;;2.76;73.70;95012.94;5009442;28;20420;-65
2022/01/21 02:34:31;;;;;;;10.73;5.90;;;;;;;3.24;74.25;95105.63;4991407;28;20034;-63
2022/01/21 02:37:00;;;;;;;8.43;6.45;;;;;;;3.20;74.42;95096.44;4973754;28;20416;-64
2022/01/21 02:40:01;;;;;;;9.55;6.18;;;;;;;3.31;74.44;95116.47;5008205;28;20120;-63
2022/01/21 02:43:00;;;;;;;;;;;;;;;;;;;;;
2022/01/21 02:46:02;;;;;;;;;;;;;;;;;;;;;
2022/01/21 02:49:17;;;;;;;9.88;6.13;;;;;;;3.19;74.55;95137.25;5008843;28;20577;-70
2022/01/21 02:52:17;;;;;;;;;;;;;;;;;;;;;
2022/01/21 02:55:05;;;;;;;7.03;4.68;;;;;;;2.94;74.34;95113.38;4958072;28;20056;-69
2022/01/21 02:57:57;;;;;;;5.32;3.58;;;;;;;2.93;74.58;95121.91;5006457;28;20056;-67
2022/01/21 03:00:52;;;;;;;;;;;;;;;;;;;;;
2022/01/21 03:03:28;;;;;;;5.88;4.20;;;;;;;2.30;75.23;95047.47;4958011;28;20052;-67
2022/01/21 03:06:27;;;;;;;5.60;3.22;;;;;;;2.64;75.59;95127.06;5008732;28;20068;-70
2022/01/21 03:08:58;;;;;;;5.35;3.40;;;;;;;2.58;75.94;95138.28;4954857;28;20089;-68
2022/01/21 03:11:29;;;;;;;3.80;2.55;;;;;;;2.59;76.16;95152.66;5003858;28;20092;-67
2022/01/21 03:14:01;;;;;;;3.50;2.50;;;;;;;2.40;76.32;95121.84;4973518;28;20030;-69
2022/01/21 03:17:01;;;;;;;4.22;2.30;;;;;;;2.61;76.70;95150.91;5008723;28;20116;-66
2022/01/21 03:19:29;;;;;;;4.53;2.65;;;;;;;2.45;77.50;95121.72;4989682;28;20034;-68
2022/01/21 03:22:20;;;;;;;3.72;2.17;;;;;;;2.57;77.42;95160.38;5008475;28;20026;-67
2022/01/21 03:25:12;;;;;;;4.30;2.20;;;;;;;2.43;77.37;95151.44;5006962;28;20181;-68
2022/01/21 03:28:08;;;;;;;;;;;;;;;;;;;;;
2022/01/21 03:31:01;;;;;;;4.20;2.90;;;;;;;2.34;78.21;95160.19;4973677;28;20042;-63
2022/01/21 03:33:59;;;;;;;;;;;;;;;;;;;;;
2022/01/21 03:36:53;;;;;;;;;;;;;;;;;;;;;
2022/01/21 03:39:24;;;;;;;4.25;2.65;;;;;;;2.11;79.21;95176.09;5006623;28;20040;-65
2022/01/21 03:42:28;;;;;;;5.97;3.50;;;;;;;2.20;79.27;95175.84;4989405;28;20433;-64
2022/01/21 03:45:06;;;;;;;4.68;2.42;;;;;;;2.16;79.15;95172.53;5005811;28;20112;-66
2022/01/21 03:47:58;;;;;;;3.45;2.08;;;;;;;2.18;79.67;95188.63;5007423;28;20683;-64
2022/01/21 03:50:39;;;;;;;3.53;2.28;;;;;;;2.09;79.58;95190.56;5006857;28;20467;-64
2022/01/21 03:53:07;;;;;;;4.88;2.25;;;;;;;1.93;80.20;95178.25;5008005;28;20116;-61
2022/01/21 03:55:52;;;;;;;4.10;2.50;;;;;;;1.94;80.35;95176.56;5007393;28;20428;-63
2022/01/21 03:58:19;;;;;;;3.40;2.30;;;;;;;1.96;80.78;95190.88;5007849;28;20468;-67
2022/01/21 04:00:49;;;;;;;3.25;2.00;;;;;;;2.01;80.46;95190.78;5006314;28;20065;-63
2022/01/21 04:03:26;;;;;;;4.55;2.25;;;;;;;2.00;79.97;95189.09;5008196;28;20476;-66
2022/01/21 04:05:56;;;;;;;4.22;2.65;;;;;;;1.91;80.31;95192.72;5007777;28;20060;-66
2022/01/21 04:08:49;;;;;;;;;;;;;;;;;;;;;
2022/01/21 04:11:42;;;;;;;;;;;;;;;;;;;;;
2022/01/21 04:14:41;;;;;;;3.47;2.42;;;;;;;2.10;80.23;95205.78;4969638;28;20038;-67
2022/01/21 04:17:36;;;;;;;4.90;2.90;;;;;;;2.10;80.15;95197.31;4984996;28;20057;-64
2022/01/21 04:20:28;;;;;;;;;;;;;;;;;;;;;
2022/01/21 04:23:14;;;;;;;4.32;2.92;;;;;;;2.19;79.10;95204.69;4954599;28;20047;-63
2022/01/21 04:26:02;;;;;;;5.90;3.90;;;;;;;2.12;79.63;95208.31;4973235;28;20055;-65
2022/01/21 04:28:33;;;;;;;5.85;3.63;;;;;;;2.15;78.98;95210.75;4992058;28;20034;-67
2022/01/21 04:31:00;;;;;;;;;;;;;;;2.23;79.02;95228.34;4941195;28;20053;-65
2022/01/21 04:34:00;;;;;;;5.75;3.38;;;;;;;2.18;78.89;95231.88;4992126;28;19910;-66
2022/01/21 04:36:59;;;;;;;;;;;;;;;;;;;;;
2022/01/21 04:39:30;;;;;;;4.97;3.30;;;;;;;2.02;78.79;95233.97;4991413;28;20034;-64
2022/01/21 04:47:38;;;;;;;5.38;2.88;;;;;;;2.02;78.05;95246.69;4990762;28;20149;-62
2022/01/21 04:50:13;;;;;;;5.13;2.97;;;;;;;1.91;78.31;95224.97;4991400;28;20545;-65
2022/01/21 04:52:48;;;;;;;5.22;2.80;;;;;;;2.10;78.49;95250.72;4988840;28;20046;-66
2022/01/21 04:55:22;;;;;;;5.07;3.78;;;;;;;1.98;78.07;95262.91;4986158;28;20064;-67
2022/01/21 04:58:02;;;;;;;5.82;2.60;;;;;;;2.00;78.12;95256.06;4989352;28;20053;-65
2022/01/21 05:00:36;;;;;;;4.90;2.58;;;;;;;2.02;78.28;95266.22;4989178;28;20489;-65
2022/01/21 05:03:02;;;;;;;4.18;2.90;;;;;;;2.08;78.11;95276.22;4991462;28;20511;-65
2022/01/21 05:05:36;;;;;;;4.85;3.45;;;;;;;1.93;78.10;95251.19;4988463;28;20113;-64
2022/01/21 05:08:07;;;;;;;3.90;2.60;;;;;;;1.91;77.74;95253.75;4993419;28;20029;-66
2022/01/21 05:10:44;;;;;;;4.20;2.33;;;;;;;1.74;77.41;95233.84;5013466;28;20088;-65
2022/01/21 05:13:10;;;;;;;4.25;2.40;;;;;;;1.82;77.39;95249.75;5016018;28;20095;-64
2022/01/21 05:18:10;;;;;;;;;;;;;;;2.08;75.87;95278.75;5020858;28;20037;-65
2022/01/21 05:20:48;;;;;;;3.03;1.98;;;;;;;1.91;76.81;95280.91;5018789;28;19921;-65
2022/01/21 05:23:22;;;;;;;4.47;2.30;;;;;;;1.77;76.78;95289.72;5018274;28;20049;-66
2022/01/21 05:25:49;;;;;;;4.13;2.38;;;;;;;1.80;76.16;95301.50;5014190;28;20038;-63
2022/01/21 05:28:24;;;;;;;4.60;2.25;;;;;;;1.38;75.93;95266.91;5019807;28;20517;-65
2022/01/21 05:30:50;;;;;;;4.47;2.55;;;;;;;1.52;76.42;95307.22;5007949;28;20050;-65
2022/01/21 05:33:16;;;;;;;5.05;2.63;;;;;;;1.53;77.41;95311.47;5022627;28;20079;-63
2022/01/21 05:35:44;;;;;;;6.10;2.75;;;;;;;1.57;77.53;95309.69;4993018;28;20034;-67
2022/01/21 05:38:53;;;;;;;;;;;;;;;;;;;;;
2022/01/21 05:41:51;;;;;;;4.18;2.40;;;;;;;1.51;77.70;95332.69;4975662;28;20714;-66
2022/01/21 05:47:36;;;;;;;4.55;2.88;;;;;;;1.36;78.52;95337.25;5010639;28;20132;-65
2022/01/21 05:50:04;;;;;;;3.60;2.80;;;;;;;1.35;78.20;95352.53;5008253;28;20066;-67
2022/01/21 05:53:14;;;;;;;;;;;;;;;;;;;;;
2022/01/21 05:55:42;;;;;;;7.65;3.40;;;;;;;1.24;78.72;95325.63;5011634;28;20037;-64
2022/01/21 05:58:22;;;;;;;6.60;2.80;;;;;;;1.47;78.75;95362.41;5021386;28;20091;-66
2022/01/21 06:00:55;;;;;;;4.93;2.63;;;;;;;1.37;77.91;95358.41;5014218;28;20049;-64
2022/01/21 06:03:26;;;;;;;5.20;3.10;;;;;;;1.47;78.26;95353.06;5021642;28;20060;-64
2022/01/21 06:06:01;;;;;;;5.65;3.65;;;;;;;1.53;77.14;95377.53;5001506;28;20069;-66
2022/01/21 06:08:29;;;;;;;5.68;3.83;;;;;;;1.31;77.35;95384.78;5017032;28;20048;-65
2022/01/21 06:11:02;;;;;;;8.25;4.55;;;;;;;1.09;78.44;95394.56;5015420;28;20069;-70
2022/01/21 06:13:32;;;;;;;9.68;4.95;;;;;;;1.11;79.35;95364.88;5004033;28;20038;-76
2022/01/21 06:16:10;;;;;;;6.80;3.58;;;;;;;1.39;78.61;95388.00;5018101;28;20056;-67
2022/01/21 06:18:39;;;;;;;7.32;4.30;;;;;;;1.27;77.37;95394.16;5020135;28;20590;-71
2022/01/21 06:21:12;;;;;;;5.15;3.75;;;;;;;1.38;77.96;95405.84;5007817;28;20366;-72
2022/01/21 06:23:39;;;;;;;8.25;4.05;;;;;;;1.52;78.27;95406.34;5023395;28;20041;-74
2022/01/21 06:26:11;;;;;;;6.53;3.53;;;;;;;1.31;77.71;95391.56;5019510;28;20072;-70
2022/01/21 06:28:40;;;;;;;6.13;3.72;;;;;;;1.31;77.39;95416.97;5018523;28;20405;-69
2022/01/21 06:31:21;;;;;;;7.22;3.08;;;;;;;1.37;77.33;95409.22;5019524;28;20124;-74
2022/01/21 06:34:14;;;;;;;5.97;3.17;;;;;;;1.14;77.11;95400.38;5015854;28;20033;-68
2022/01/21 06:36:46;;;;;;;5.07;3.72;;;;;;;1.22;76.99;95423.91;5018701;28;20886;-70
2022/01/21 06:39:16;;;;;;;7.43;3.95;;;;;;;1.31;77.32;95444.94;5019327;28;20097;-71
2022/01/21 06:41:44;;;;;;;5.72;3.38;;;;;;;1.25;77.09;95441.66;5017984;28;20057;-66
2022/01/21 06:44:11;;;;;;;9.35;4.07;;;;;;;0.94;77.26;95405.03;5018279;28;20053;-72
2022/01/21 06:46:48;;;;;;;7.13;3.72;;;;;;;1.05;76.45;95423.41;5019676;28;20069;-71
2022/01/21 06:49:30;;;;;;;7.93;4.72;;;;;;;0.87;76.41;95401.72;5017703;28;20029;-73
2022/01/21 06:52:10;;;;;;;5.22;3.17;;;;;;;0.87;75.33;95412.75;5007083;28;20804;-76
2022/01/21 06:54:36;;;;;;;6.97;4.15;;;;;;;1.18;75.45;95452.81;5019135;28;20034;-74
2022/01/21 06:57:13;;;;;;;6.32;4.10;;;;;;;1.24;75.49;95456.91;5014665;28;20050;-74
2022/01/21 06:59:49;;;;;;;6.78;4.45;;;;;;;1.40;75.09;95471.00;5019343;28;20041;-75
2022/01/21 07:02:21;;;;;;;6.32;4.15;;;;;;;1.38;75.15;95443.97;4991133;28;20124;-74
2022/01/21 07:04:56;;;;;;;6.18;3.30;;;;;;;1.36;73.41;95443.97;4984602;28;20026;-74
2022/01/21 07:07:32;;;;;;;5.25;3.45;;;;;;;1.62;72.61;95481.56;4995897;28;20104;-69
2022/01/21 07:10:04;;;;;;;6.65;3.53;;;;;;;1.36;72.19;95477.03;5005268;28;20056;-75
2022/01/21 07:12:30;;;;;;;5.50;3.55;;;;;;;1.50;72.38;95491.16;5008295;28;20053;-69
2022/01/21 07:14:57;;;;;;;5.72;3.92;;;;;;;1.18;71.93;95444.31;5006351;28;20030;-66
2022/01/21 07:17:27;;;;;;;3.88;2.70;;;;;;;0.94;70.30;95394.88;5008943;28;20071;-73
2022/01/21 07:19:56;;;;;;;5.22;3.17;;;;;;;1.45;71.75;95507.31;5008630;28;20028;-77
2022/01/21 07:22:23;;;;;;;4.43;3.15;;;;;;;1.18;72.97;95511.22;5007308;28;20440;-74
2022/01/21 07:24:50;;;;;;;7.72;4.45;;;;;;;0.94;73.28;95501.50;5008329;28;20030;-73
2022/01/21 07:27:19;;;;;;;7.30;3.90;;;;;;;1.13;72.43;95522.31;4994765;28;20068;-72
2022/01/21 07:29:49;;;;;;;5.68;3.67;;;;;;;1.06;72.26;95524.97;4988977;28;20091;-70
2022/01/21 07:32:24;;;;;;;8.90;4.40;;;;;;;0.96;72.32;95507.41;4988147;28;20046;-75
2022/01/21 07:34:54;;;;;;;9.40;4.93;;;;;;;1.04;72.19;95541.13;4987820;28;20074;-76
2022/01/21 07:37:22;;;;;;;5.90;4.00;;;;;;;0.88;73.85;95536.28;4987413;28;20022;-76
2022/01/21 07:39:51;;;;;;;6.40;4.15;;;;;;;0.79;74.36;95544.06;4988834;28;20465;-74
2022/01/21 07:42:17;;;;;;;10.02;4.13;;;;;;;0.72;74.25;95542.47;4988626;28;20038;-69
2022/01/21 07:44:49;;;;;;;9.98;5.00;;;;;;;0.45;75.47;95504.00;4987902;28;20092;-68
2022/01/21 07:47:18;;;;;;;6.72;4.13;;;;;;;0.36;76.17;95532.03;4986713;28;20418;-72
2022/01/21 07:49:48;;;;;;;7.43;4.40;;;;;;;0.48;76.55;95553.88;4978820;28;20132;-72
2022/01/21 07:52:23;;;;;;;9.50;6.40;;;;;;;0.51;77.52;95547.03;4988115;28;20093;-75
2022/01/21 07:54:51;;;;;;;7.25;4.25;;;;;;;0.11;75.96;95503.66;5003282;28;20449;-74
2022/01/21 07:57:21;;;;;;;6.25;4.25;;;;;;;0.22;75.83;95516.19;5007485;28;20076;-70
2022/01/21 07:59:51;;;;;;;6.95;3.85;;;;;;;0.12;75.13;95544.22;5011682;28;20034;-74
2022/01/21 08:02:18;;;;;;;8.27;4.38;;;;;;;0.20;76.18;95545.78;5010131;28;20038;-72
2022/01/21 08:04:47;;;;;;;8.45;4.43;;;;;;;0.28;75.79;95574.44;5012731;28;20040;-73
2022/01/21 08:07:16;;;;;;;7.00;3.83;;;;;;;0.25;75.74;95564.34;5010910;28;20042;-69
2022/01/21 08:09:44;;;;;;;6.30;4.15;;;;;;;0.32;74.96;95569.28;5012162;28;20134;-67
2022/01/21 08:12:15;;;;;;;7.00;4.38;;;;;;;0.36;75.43;95568.41;5011316;28;20501;-70
2022/01/21 08:14:47;;;;;;;9.38;5.55;;;;;;;0.39;75.20;95557.38;5009947;28;20088;-77
2022/01/21 08:17:16;;;;;;;10.20;5.32;;;;;;;0.40;73.61;95574.28;5013507;28;20034;-80
2022/01/21 08:19:45;;;;;;;9.00;5.45;;;;;;;0.30;73.71;95557.50;5010554;28;20042;-69
2022/01/21 08:22:14;;;;;;;10.57;5.85;;;;;;;0.47;74.49;95587.72;5014086;28;20034;-74
2022/01/21 08:24:44;;;;;;;7.43;4.05;;;;;;;0.48;73.42;95587.69;5010858;28;20073;-80
2022/01/21 08:27:25;;;;;;;10.80;6.22;;;;;;;0.24;73.95;95552.53;5013529;28;20069;-79
2022/01/21 08:29:51;;;;;;;14.20;8.82;;;;;;;0.38;74.84;95567.53;5018014;28;20479;-79
2022/01/21 08:32:21;;;;;;;15.35;8.57;;;;;;;0.34;73.60;95559.13;5003761;28;20031;-77
2022/01/21 08:34:59;;;;;;;13.18;8.48;;;;;;;0.70;73.74;95594.97;4988364;28;20026;-75
2022/01/21 08:37:30;;;;;;;11.98;7.72;;;;;;;0.76;73.00;95589.81;4993659;28;20030;-78
2022/01/21 08:40:00;;;;;;;14.75;8.32;;;;;;;0.96;71.93;95588.66;4993757;28;20418;-78
2022/01/21 08:42:29;;;;;;;9.70;6.32;;;;;;;1.02;71.80;95586.03;4996094;28;20073;-78
2022/01/21 08:44:56;;;;;;;9.05;5.80;;;;;;;0.81;71.41;95527.09;4996966;28;20038;-76
2022/01/21 08:47:24;;;;;;;8.85;5.20;;;;;;;1.10;70.55;95544.38;4996698;28;20034;-77
2022/01/21 08:49:56;;;;;;;8.85;5.57;;;;;;;1.11;69.29;95527.44;4977300;28;20046;-78
2022/01/21 08:52:28;;;;;;;7.43;5.15;;;;;;;1.14;68.46;95540.09;4994224;28;20084;-77
2022/01/21 08:54:55;;;;;;;7.80;5.32;;;;;;;1.30;68.28;95558.44;4994242;28;20098;-72
2022/01/21 08:57:26;;;;;;;10.70;5.65;;;;;;;1.33;68.09;95571.09;4994447;28;20042;-75
2022/01/21 08:59:55;;;;;;;10.77;5.35;;;;;;;1.40;67.74;95571.81;4992082;28;20034;-75
2022/01/21 09:02:26;;;;;;;9.45;4.90;;;;;;;1.26;67.33;95600.84;5004955;28;20041;-74
2022/01/21 09:04:56;;;;;;;9.30;5.35;;;;;;;1.28;67.50;95601.66;5010793;28;20076;-76
2022/01/21 09:07:26;;;;;;;9.65;5.18;;;;;;;1.13;67.72;95565.50;5010038;28;20080;-77
2022/01/21 09:09:55;;;;;;;7.65;3.67;;;;;;;1.03;68.04;95588.53;5011003;28;20042;-74
2022/01/21 09:12:37;;;;;;;7.13;4.57;;;;;;;1.00;68.54;95575.91;5011297;28;20125;-66
2022/01/21 09:15:05;;;;;;;9.20;4.65;;;;;;;0.87;68.51;95536.31;5011989;28;20037;-74
2022/01/21 09:17:38;;;;;;;8.35;4.65;;;;;;;1.05;68.97;95543.63;5014944;28;20045;-69
2022/01/21 09:20:07;;;;;;;6.90;4.25;;;;;;;1.21;68.03;95539.09;5013927;28;20041;-77
2022/01/21 09:22:37;;;;;;;4.60;3.17;;;;;;;1.20;67.21;95573.00;5019958;28;20045;-80
2022/01/21 09:25:08;;;;;;;9.85;4.80;;;;;;;1.34;67.09;95542.25;5022405;28;20042;-69
2022/01/21 09:27:37;;;;;;;5.70;4.03;;;;;;;1.19;66.65;95512.88;5015771;28;20038;-77
2022/01/21 09:30:05;;;;;;;9.05;5.13;;;;;;;1.62;65.86;95534.97;5014493;28;20081;-78
2022/01/21 09:32:38;;;;;;;7.90;3.85;;;;;;;1.39;64.36;95532.00;4997550;28;20394;-72
2022/01/21 09:35:10;;;;;;;7.35;4.63;;;;;;;1.49;64.39;95522.50;4992528;28;20030;-74
2022/01/21 09:37:44;;;;;;;6.18;3.90;;;;;;;1.18;64.82;95502.75;4991771;28;20037;-71
2022/01/21 09:40:18;;;;;;;7.65;4.40;;;;;;;1.27;64.93;95520.38;4992105;28;20121;-73
2022/01/21 09:42:53;;;;;;;6.47;3.97;;;;;;;1.19;63.87;95509.53;4991777;28;20117;-75
2022/01/21 09:45:24;;;;;;;6.93;3.88;;;;;;;1.20;64.66;95536.63;4992667;28;20032;-79
2022/01/21 09:47:56;;;;;;;9.48;5.97;;;;;;;1.14;63.79;95475.75;4991752;28;20046;-73
2022/01/21 09:50:26;;;;;;;12.90;6.40;;;;;;;1.77;62.45;95531.28;5001430;28;20489;-75
2022/01/21 09:52:54;;;;;;;9.90;5.38;;;;;;;1.63;61.86;95523.91;5012961;28;20033;-76
2022/01/21 09:55:25;;;;;;;10.95;7.13;;;;;;;1.78;60.58;95494.78;5011865;28;20821;-69
2022/01/21 09:57:57;;;;;;;12.90;7.18;;;;;;;2.27;60.37;95525.13;4995967;28;20128;-69
2022/01/21 10:00:26;;;;;;;11.73;5.93;;;;;;;2.46;57.45;95523.00;5012257;28;20048;-68
2022/01/21 10:02:53;;;;;;;12.18;7.60;;;;;;;2.40;57.83;95417.09;5011477;28;20048;-76
2022/01/21 10:05:20;;;;;;;11.93;7.45;;;;;;;3.17;56.09;95483.06;5010564;28;20417;-69
2022/01/21 10:07:53;;;;;;;11.77;6.68;;;;;;;3.10;54.01;95493.41;5009719;28;20127;-71
2022/01/21 10:10:20;;;;;;;12.48;8.70;;;;;;;3.34;53.65;95503.00;5005882;28;20050;-70
2022/01/21 10:12:48;;;;;;;10.68;7.95;;;;;;;3.44;54.94;95499.31;5000804;28;20041;-74
2022/01/21 10:15:16;;;;;;;13.43;7.32;;;;;;;3.33;53.17;95496.22;5014341;28;20046;-75
2022/01/21 10:18:04;;;;;;;10.77;6.38;;;;;;;2.57;54.44;95495.56;5012243;28;20620;-77
2022/01/21 10:20:30;;;;;;;7.38;4.65;;;;;;;2.69;55.11;95495.28;5025971;28;20112;-73
2022/01/21 10:23:08;;;;;;;8.63;5.50;;;;;;;3.09;54.62;95484.06;5013649;28;20087;-73
2022/01/21 10:25:37;;;;;;;9.00;4.47;;;;;;;3.16;53.41;95489.03;5025790;28;20113;-77
2022/01/21 10:28:10;;;;;;;6.45;4.60;;;;;;;2.97;53.55;95481.88;5026799;28;20718;-75
2022/01/21 10:30:36;;;;;;;5.80;3.58;;;;;;;2.70;52.84;95435.00;5027185;28;20022;-75
2022/01/21 10:33:41;;;;;;;5.60;3.25;;;;;;;2.63;54.10;95492.06;5010048;28;20630;-75
2022/01/21 10:36:15;;;;;;;6.05;3.95;;;;;;;2.87;55.16;95477.84;4965874;28;20043;-74
2022/01/21 10:38:46;;;;;;;4.53;2.78;;;;;;;3.05;52.52;95479.94;4967935;28;20534;-69
2022/01/21 10:41:18;;;;;;;7.35;4.32;;;;;;;3.53;53.18;95473.56;4966451;28;20410;-73
2022/01/21 10:44:02;;;;;;;4.72;3.40;;;;;;;3.80;51.10;95468.53;4967060;28;20059;-78
2022/01/21 10:46:36;;;;;;;8.45;3.50;;;;;;;3.68;51.62;95473.13;4967659;28;20251;-76
2022/01/21 10:49:18;;;;;;;5.00;3.83;;;;;;;3.28;51.83;95447.91;4967437;28;20091;-74
2022/01/21 10:51:55;;;;;;;6.88;4.25;;;;;;;3.27;52.86;95448.78;4966937;28;20086;-68
2022/01/21 10:54:26;;;;;;;6.78;4.82;;;;;;;3.15;52.61;95441.47;4966790;28;20046;-75
2022/01/21 10:57:11;;;;;;;7.05;3.40;;;;;;;3.22;52.48;95458.28;4967606;28;20067;-69
2022/01/21 11:00:01;;;;;;;5.72;3.47;;;;;;;2.73;52.64;95461.22;4959160;28;20727;-74
2022/01/21 11:02:29;;;;;;;9.27;4.07;;;;;;;2.48;52.87;95461.00;4964346;28;20038;-71
2022/01/21 11:05:20;;;;;;;7.50;4.10;;;;;;;2.82;52.96;95451.66;4987142;28;20039;-69
2022/01/21 11:08:11;;;;;;;8.23;4.45;;;;;;;3.09;53.55;95456.06;4970602;28;20042;-74
2022/01/21 11:11:01;;;;;;;15.82;6.40;;;;;;;3.09;52.51;95455.22;4969751;28;20038;-69
2022/01/21 11:13:57;;;;;;;9.30;5.18;;;;;;;2.89;52.37;95450.66;4989074;28;20401;-74
2022/01/21 11:16:45;;;;;;;10.93;4.65;;;;;;;2.86;52.08;95435.44;5009442;28;20033;-77
2022/01/21 11:19:41;;;;;;;8.57;5.15;;;;;;;3.27;52.78;95443.69;4975483;28;20049;-82
2022/01/21 11:22:15;;;;;;;7.10;4.13;;;;;;;3.05;52.63;95444.28;5009169;28;20060;-81
2022/01/21 11:25:21;;;;;;;;;;;;;;;;;;;;;
2022/01/21 11:28:38;;;;;;;;;;;;;;;;;;;;;
2022/01/21 11:31:32;;;;;;;8.15;4.55;;;;;;;3.12;51.96;95424.56;5006498;28;20409;-79
2022/01/21 11:34:17;;;;;;;8.07;4.35;;;;;;;2.35;51.78;95399.38;4990317;28;20041;-72
2022/01/21 11:37:13;;;;;;;9.73;4.88;;;;;;;2.94;52.81;95436.91;4956735;28;20053;-69
2022/01/21 11:40:15;;;;;;;;;;;;;;;;;;;;;
2022/01/21 11:42:58;;;;;;;6.53;4.13;;;;;;;2.35;53.62;95419.72;5008839;28;20040;-80
2022/01/21 11:46:04;;;;;;;8.23;5.60;;;;;;;2.63;53.70;95441.97;5008327;28;20044;-75
2022/01/21 11:49:08;;;;;;;;;;;;;;;;;;;;;
2022/01/21 11:52:03;;;;;;;9.65;4.80;;;;;;;2.24;52.36;95449.69;4997238;28;20040;-75
2022/01/21 11:54:37;;;;;;;6.72;4.22;;;;;;;2.08;51.56;95405.94;4973844;28;20061;-79
2022/01/21 11:57:54;;;;;;;;;;;;;;;;;;;;;
2022/01/21 12:00:55;;;;;;;6.18;3.75;;;;;;;2.14;52.86;95425.34;4985891;28;20043;-71
2022/01/21 12:03:55;;;;;;;10.50;5.15;;;;;;;2.39;52.87;95438.31;4999434;28;20045;-67
2022/01/21 12:06:55;;;;;;;7.05;4.55;;;;;;;1.87;54.60;95436.97;4991126;28;20048;-76
2022/01/21 12:10:14;;;;;;;9.38;5.30;;;;;;;1.44;55.74;95448.88;4985682;28;20414;-72
2022/01/21 12:13:13;;;;;;;9.18;5.30;;;;;;;1.35;57.23;95449.91;4985550;28;20070;-70
2022/01/21 12:19:20;;;;;;;;;;;;;;;;;;;;;
2022/01/21 12:21:53;;;;;;;14.18;6.80;;;;;;;1.45;56.59;95407.38;4986348;28;20038;-74
2022/01/21 12:25:08;;;;;;;11.40;6.00;;;;;;;1.54;56.69;95440.22;4969338;28;20053;-74
2022/01/21 12:27:36;;;;;;;8.52;4.60;;;;;;;1.14;56.20;95420.69;4985800;28;20038;-69
2022/01/21 12:30:30;;;;;;;8.27;4.82;;;;;;;1.26;57.62;95433.16;4986073;28;20064;-78
2022/01/21 12:33:14;;;;;;;8.30;5.15;;;;;;;1.11;57.21;95387.72;4983479;28;20365;-77
2022/01/21 12:36:18;;;;;;;8.88;4.53;;;;;;;1.00;56.81;95422.66;4982593;28;20486;-76
2022/01/21 12:41:55;;;;;;;5.40;3.75;;;;;;;0.90;56.74;95427.06;5004640;28;20053;-77
2022/01/21 12:44:32;;;;;;;7.47;4.25;;;;;;;0.93;57.37;95428.72;4951572;28;20086;-71
2022/01/21 12:46:58;;;;;;;9.45;4.53;;;;;;;1.08;57.49;95405.56;4970087;28;20027;-74
2022/01/21 12:49:38;;;;;;;9.15;4.35;;;;;;;0.97;56.15;95413.41;4968686;28;20138;-71
2022/01/21 12:57:55;;;;;;;7.38;4.38;;;;;;;0.81;54.12;95404.41;4970111;28;20109;-74
2022/01/21 13:00:24;;;;;;;9.65;5.10;;;;;;;1.13;56.00;95413.09;4962021;28;20494;-71
2022/01/21 13:02:51;;;;;;;8.93;4.75;;;;;;;1.47;55.42;95408.16;4968492;28;20055;-71
2022/01/21 13:05:27;;;;;;;9.00;4.68;;;;;;;1.54;53.29;95386.84;4968930;28;20042;-76
2022/01/21 13:08:19;;;;;;;8.18;4.63;;;;;;;1.79;54.16;95407.47;4968546;28;20461;-73
2022/01/21 13:10:50;;;;;;;8.13;4.82;;;;;;;1.93;52.26;95391.06;4962733;28;20047;-77
2022/01/21 13:13:48;;;;;;;10.60;4.32;;;;;;;1.97;50.71;95420.66;4947637;29;20201;-74
2022/01/21 13:16:32;;;;;;;9.43;4.80;;;;;;;1.87;49.43;95429.34;4945973;29;20514;-73
2022/01/21 13:19:09;;;;;;;24.27;6.53;;;;;;;1.76;51.93;95432.97;4949879;29;20061;-77
2022/01/21 13:21:45;;;;;;;9.05;4.82;;;;;;;1.33;52.10;95402.53;4985343;28;20189;-75
2022/01/21 13:24:25;;;;;;;8.20;4.30;;;;;;;1.56;51.76;95435.94;4990777;28;20046;-76
2022/01/21 13:26:52;;;;;;;6.63;4.18;;;;;;;1.16;50.87;95378.31;4991152;28;20073;-76
2022/01/21 13:29:37;;;;;;;9.48;4.97;;;;;;;1.21;53.00;95414.63;4990089;28;20054;-75
2022/01/21 13:32:05;;;;;;;9.10;5.57;;;;;;;1.33;53.18;95415.22;4991145;28;20402;-79
2022/01/21 13:34:40;;;;;;;10.73;6.13;;;;;;;1.19;52.78;95438.38;4991110;28;20493;-78
2022/01/21 13:37:11;;;;;;;7.45;4.38;;;;;;;0.81;54.73;95433.16;4991114;28;20073;-76
2022/01/21 13:39:43;;;;;;;6.63;4.50;;;;;;;0.85;54.88;95444.97;4991369;28;20046;-77
2022/01/21 13:42:17;;;;;;;8.40;5.25;;;;;;;0.82;54.56;95459.38;4991083;28;20053;-76
2022/01/21 13:44:45;;;;;;;10.25;5.68;;;;;;;0.71;56.15;95462.13;4986713;28;20045;-71
2022/01/21 13:47:27;;;;;;;10.48;6.30;;;;;;;1.14;61.43;95445.28;4990391;28;20502;-75
2022/01/21 13:49:59;;;;;;;8.98;5.10;;;;;;;0.83;55.98;95435.69;4989597;28;20049;-72
2022/01/21 13:52:47;;;;;;;9.07;6.20;;;;;;;0.79;54.75;95413.72;4989641;28;20030;-73
2022/01/21 13:55:46;;;;;;;5.97;3.65;;;;;;;0.80;54.65;95431.47;4989747;28;20451;-74
2022/01/21 13:58:18;;;;;;;8.40;5.05;;;;;;;0.74;55.56;95439.22;4988508;28;20026;-75
2022/01/21 14:00:52;;;;;;;8.15;4.35;;;;;;;0.51;56.34;95419.34;4970384;28;20038;-74
2022/01/21 14:03:36;;;;;;;4.97;3.05;;;;;;;0.31;54.98;95433.19;4978965;28;20038;-73
2022/01/21 14:06:06;;;;;;;7.10;3.90;;;;;;;0.24;56.71;95438.38;4990825;28;20022;-76
2022/01/21 14:08:45;;;;;;;5.47;3.90;;;;;;;0.04;56.29;95431.91;4990716;28;20461;-76
2022/01/21 14:11:25;;;;;;;10.20;4.93;;;;;;;0.02;56.52;95430.25;4998029;28;20534;-76